createdAt,value
2019-01-29T00:01:17.124Z,975.32
2019-01-29T00:02:17.042Z,975.37
2019-01-29T00:04:09.879Z,975.38
2019-01-29T00:05:09.741Z,975.42
2019-01-29T00:07:02.635Z,975.41
2019-01-29T00:08:02.491Z,975.46
2019-01-29T00:09:55.385Z,975.57
2019-01-29T00:10:55.234Z,975.57
2019-01-29T00:12:48.535Z,975.55
2019-01-29T00:13:48.419Z,975.52
2019-01-29T00:15:41.293Z,975.50
2019-01-29T00:16:41.153Z,975.55
2019-01-29T00:18:34.031Z,975.50
2019-01-29T00:19:33.896Z,975.57
2019-01-29T00:21:26.807Z,975.58
2019-01-29T00:22:33.240Z,975.62
2019-01-29T00:24:19.546Z,975.64
2019-01-29T00:25:19.427Z,975.68
2019-01-29T00:27:12.285Z,975.67
2019-01-29T00:28:12.141Z,975.72
2019-01-29T00:30:05.033Z,975.72
2019-01-29T00:31:04.927Z,975.71
2019-01-29T00:32:57.763Z,975.75
2019-01-29T00:33:57.649Z,975.70
2019-01-29T00:35:50.561Z,975.66
2019-01-29T00:36:50.390Z,975.65
2019-01-29T00:38:43.292Z,975.75
2019-01-29T00:39:43.131Z,975.75
2019-01-29T00:41:36.042Z,975.74
2019-01-29T00:42:35.897Z,975.78
2019-01-29T00:44:28.874Z,975.72
2019-01-29T00:45:28.754Z,975.73
2019-01-29T00:47:21.620Z,975.74
2019-01-29T00:48:21.492Z,975.77
2019-01-29T00:50:14.410Z,975.81
2019-01-29T00:51:14.237Z,975.88
2019-01-29T00:53:07.131Z,975.86
2019-01-29T00:54:06.991Z,975.86
2019-01-29T00:55:59.869Z,975.87
2019-01-29T00:56:59.750Z,975.87
2019-01-29T00:58:52.620Z,975.92
2019-01-29T00:59:52.568Z,975.90
2019-01-29T01:01:45.388Z,975.92
2019-01-29T01:02:45.240Z,975.89
2019-01-29T01:04:38.533Z,975.91
2019-01-29T01:05:38.402Z,976.00
2019-01-29T01:07:31.288Z,975.86
2019-01-29T01:08:31.144Z,975.93
2019-01-29T01:10:24.048Z,975.93
2019-01-29T01:11:23.898Z,975.95
2019-01-29T01:13:16.784Z,975.91
2019-01-29T01:14:16.642Z,975.96
2019-01-29T01:16:09.528Z,975.97
2019-01-29T01:17:09.400Z,975.99
2019-01-29T01:19:02.297Z,976.02
2019-01-29T01:20:02.147Z,976.03
2019-01-29T01:21:55.047Z,976.09
2019-01-29T01:22:54.899Z,976.11
2019-01-29T01:24:47.770Z,976.17
2019-01-29T01:25:47.649Z,976.15
2019-01-29T01:27:41.045Z,976.18
2019-01-29T01:28:40.919Z,976.17
2019-01-29T01:30:33.786Z,976.22
2019-01-29T01:31:33.655Z,976.19
2019-01-29T01:33:26.543Z,976.29
2019-01-29T01:34:26.415Z,976.28
2019-01-29T01:36:19.289Z,976.25
2019-01-29T01:37:19.149Z,976.25
2019-01-29T01:39:12.051Z,976.32
2019-01-29T01:40:11.913Z,976.31
2019-01-29T01:42:05.107Z,976.35
2019-01-29T01:43:04.973Z,976.43
2019-01-29T01:44:57.855Z,976.37
2019-01-29T01:45:57.729Z,976.37
2019-01-29T01:47:50.620Z,976.44
2019-01-29T01:48:50.479Z,976.46
2019-01-29T01:50:43.387Z,976.44
2019-01-29T01:51:43.257Z,976.51
2019-01-29T01:53:36.091Z,976.47
2019-01-29T01:54:35.979Z,976.48
2019-01-29T01:56:28.861Z,976.54
2019-01-29T01:57:28.707Z,976.53
2019-01-29T01:59:21.704Z,976.54
2019-01-29T02:00:21.589Z,976.61
2019-01-29T02:02:14.459Z,976.63
2019-01-29T02:03:14.323Z,976.55
2019-01-29T02:05:07.708Z,976.65
2019-01-29T02:06:07.578Z,976.64
2019-01-29T02:08:00.479Z,976.62
2019-01-29T02:09:00.322Z,976.68
2019-01-29T02:10:53.217Z,976.69
2019-01-29T02:11:53.076Z,976.71
2019-01-29T02:13:46.159Z,976.74
2019-01-29T02:14:46.048Z,976.78
2019-01-29T02:16:38.910Z,976.75
2019-01-29T02:17:38.802Z,976.81
2019-01-29T02:19:31.666Z,976.81
2019-01-29T02:20:31.532Z,976.81
2019-01-29T02:22:24.411Z,976.83
2019-01-29T02:23:24.274Z,976.79
2019-01-29T02:25:17.162Z,976.81
2019-01-29T02:26:17.034Z,976.85
2019-01-29T02:28:09.944Z,976.86
2019-01-29T02:29:09.818Z,976.87
2019-01-29T02:31:02.667Z,976.87
2019-01-29T02:32:02.534Z,976.93
2019-01-29T02:33:55.416Z,976.95
2019-01-29T02:34:55.274Z,976.91
2019-01-29T02:36:48.169Z,976.89
2019-01-29T02:37:48.020Z,976.92
2019-01-29T02:39:40.934Z,976.90
2019-01-29T02:40:40.774Z,977.01
2019-01-29T02:42:33.665Z,977.06
2019-01-29T02:43:33.528Z,976.93
2019-01-29T02:45:26.414Z,976.96
2019-01-29T02:46:26.285Z,976.99
2019-01-29T02:48:19.177Z,976.96
2019-01-29T02:49:19.028Z,977.01
2019-01-29T02:51:11.904Z,976.95
2019-01-29T02:52:11.798Z,977.00
2019-01-29T02:54:04.662Z,977.00
2019-01-29T02:55:04.523Z,976.99
2019-01-29T02:56:57.444Z,976.97
2019-01-29T02:57:57.272Z,977.00
2019-01-29T02:59:50.478Z,976.97
2019-01-29T03:00:50.325Z,977.03
2019-01-29T03:02:43.315Z,977.03
2019-01-29T03:03:43.203Z,977.03
2019-01-29T03:05:36.145Z,976.98
2019-01-29T03:06:35.935Z,977.13
2019-01-29T03:08:28.813Z,977.19
2019-01-29T03:09:28.681Z,977.17
2019-01-29T03:11:21.557Z,977.17
2019-01-29T03:12:21.435Z,977.18
2019-01-29T03:14:14.313Z,977.22
2019-01-29T03:15:14.181Z,977.22
2019-01-29T03:17:07.081Z,977.23
2019-01-29T03:18:06.943Z,977.23
2019-01-29T03:19:59.821Z,977.21
2019-01-29T03:20:59.675Z,977.24
2019-01-29T03:22:52.561Z,977.21
2019-01-29T03:23:52.457Z,977.22
2019-01-29T03:25:45.314Z,977.26
2019-01-29T03:26:45.193Z,977.16
2019-01-29T03:28:38.064Z,977.24
2019-01-29T03:29:37.929Z,977.32
2019-01-29T03:31:30.843Z,977.34
2019-01-29T03:32:30.675Z,977.30
2019-01-29T03:34:23.572Z,977.30
2019-01-29T03:35:23.429Z,977.30
2019-01-29T03:37:16.305Z,977.34
2019-01-29T03:38:16.199Z,977.38
2019-01-29T03:40:09.088Z,977.39
2019-01-29T03:41:08.930Z,977.43
2019-01-29T03:43:01.827Z,977.36
2019-01-29T03:44:01.683Z,977.43
2019-01-29T03:45:54.556Z,977.53
2019-01-29T03:46:54.480Z,977.47
2019-01-29T03:48:47.324Z,977.51
2019-01-29T03:49:47.191Z,977.50
2019-01-29T03:51:40.178Z,977.54
2019-01-29T03:52:39.927Z,977.47
2019-01-29T03:54:33.316Z,977.48
2019-01-29T03:55:33.194Z,977.63
2019-01-29T03:57:26.095Z,977.65
2019-01-29T03:58:25.945Z,977.57
2019-01-29T04:00:18.822Z,977.70
2019-01-29T04:01:18.709Z,977.66
2019-01-29T04:03:11.592Z,977.72
2019-01-29T04:04:11.428Z,977.74
2019-01-29T04:06:04.341Z,977.72
2019-01-29T04:07:04.184Z,977.77
2019-01-29T04:08:57.060Z,977.76
2019-01-29T04:09:56.941Z,977.74
2019-01-29T04:11:49.822Z,977.85
2019-01-29T04:12:49.690Z,977.82
2019-01-29T04:14:42.588Z,977.90
2019-01-29T04:15:42.433Z,977.90
2019-01-29T04:17:35.328Z,977.89
2019-01-29T04:18:35.184Z,977.95
2019-01-29T04:20:28.179Z,977.93
2019-01-29T04:21:28.034Z,977.88
2019-01-29T04:23:20.944Z,977.86
2019-01-29T04:24:20.784Z,977.92
2019-01-29T04:26:13.666Z,977.90
2019-01-29T04:27:13.560Z,977.91
2019-01-29T04:29:06.439Z,977.88
2019-01-29T04:30:06.285Z,977.98
2019-01-29T04:31:59.265Z,977.94
2019-01-29T04:32:59.164Z,978.08
2019-01-29T04:34:52.015Z,978.03
2019-01-29T04:35:51.884Z,978.00
2019-01-29T04:37:44.774Z,978.06
2019-01-29T04:38:44.633Z,978.09
2019-01-29T04:40:37.518Z,978.15
2019-01-29T04:41:37.413Z,978.10
2019-01-29T04:43:30.285Z,978.16
2019-01-29T04:44:30.159Z,978.18
2019-01-29T04:46:24.043Z,978.16
2019-01-29T04:47:23.907Z,978.15
2019-01-29T04:49:16.793Z,978.16
2019-01-29T04:50:16.670Z,978.16
2019-01-29T04:52:09.745Z,978.13
2019-01-29T04:53:09.416Z,978.12
2019-01-29T04:55:02.305Z,978.10
2019-01-29T04:56:02.159Z,978.18
2019-01-29T04:57:55.064Z,978.17
2019-01-29T04:58:54.914Z,978.20
2019-01-29T05:00:47.787Z,978.22
2019-01-29T05:01:47.682Z,978.19
2019-01-29T05:03:40.536Z,978.17
2019-01-29T05:04:40.413Z,978.21
2019-01-29T05:06:33.297Z,978.16
2019-01-29T05:07:33.181Z,978.23
2019-01-29T05:09:26.043Z,978.20
2019-01-29T05:10:25.906Z,978.18
2019-01-29T05:12:18.801Z,978.16
2019-01-29T05:13:18.696Z,978.23
2019-01-29T05:15:11.542Z,978.23
2019-01-29T05:16:11.407Z,978.23
2019-01-29T05:18:04.306Z,978.21
2019-01-29T05:19:04.166Z,978.20
2019-01-29T05:20:57.042Z,978.24
2019-01-29T05:21:56.908Z,978.22
2019-01-29T05:23:49.810Z,978.18
2019-01-29T05:24:49.673Z,978.16
2019-01-29T05:26:42.538Z,978.22
2019-01-29T05:27:42.400Z,978.18
2019-01-29T05:29:35.292Z,978.21
2019-01-29T05:30:35.152Z,978.23
2019-01-29T05:32:28.062Z,978.27
2019-01-29T05:33:27.904Z,978.23
2019-01-29T05:35:20.805Z,978.32
2019-01-29T05:36:20.654Z,978.28
2019-01-29T05:38:13.538Z,978.32
2019-01-29T05:39:13.414Z,978.31
2019-01-29T05:41:06.284Z,978.37
2019-01-29T05:42:06.157Z,978.34
2019-01-29T05:43:59.082Z,978.43
2019-01-29T05:44:58.910Z,978.43
2019-01-29T05:46:51.785Z,978.39
2019-01-29T05:47:51.651Z,978.45
2019-01-29T05:49:44.524Z,978.39
2019-01-29T05:50:44.400Z,978.43
2019-01-29T05:52:37.428Z,978.48
2019-01-29T05:53:37.148Z,978.47
2019-01-29T05:55:30.043Z,978.49
2019-01-29T05:56:29.909Z,978.49
2019-01-29T05:58:22.848Z,978.45
2019-01-29T05:59:22.655Z,978.47
2019-01-29T06:01:15.543Z,978.48
2019-01-29T06:02:15.399Z,978.46
2019-01-29T06:04:08.783Z,978.55
2019-01-29T06:05:08.665Z,978.52
2019-01-29T06:07:01.557Z,978.50
2019-01-29T06:08:01.405Z,978.50
2019-01-29T06:09:54.209Z,978.48
2019-01-29T06:10:54.089Z,978.48
2019-01-29T06:12:46.951Z,978.50
2019-01-29T06:13:46.801Z,978.43
2019-01-29T06:15:39.703Z,978.45
2019-01-29T06:16:39.564Z,978.45
2019-01-29T06:18:32.444Z,978.45
2019-01-29T06:19:32.303Z,978.39
2019-01-29T06:21:25.202Z,978.45
2019-01-29T06:22:25.062Z,978.58
2019-01-29T06:24:25.548Z,978.48
2019-01-29T06:25:18.344Z,978.51
2019-01-29T06:27:11.244Z,978.53
2019-01-29T06:28:11.075Z,978.51
2019-01-29T06:30:03.947Z,978.53
2019-01-29T06:31:03.832Z,978.56
2019-01-29T06:32:56.705Z,978.58
2019-01-29T06:33:56.598Z,978.52
2019-01-29T06:35:49.453Z,978.51
2019-01-29T06:36:50.871Z,978.55
2019-01-29T06:38:42.218Z,978.58
2019-01-29T06:39:42.069Z,978.58
2019-01-29T06:41:34.951Z,978.63
2019-01-29T06:42:34.828Z,978.63
2019-01-29T06:44:27.726Z,978.62
2019-01-29T06:45:27.576Z,978.65
2019-01-29T06:47:20.445Z,978.71
2019-01-29T06:48:20.327Z,978.70
2019-01-29T06:50:13.202Z,978.72
2019-01-29T06:51:13.080Z,978.65
2019-01-29T06:53:05.973Z,978.67
2019-01-29T06:54:05.845Z,978.73
2019-01-29T06:55:58.707Z,978.82
2019-01-29T06:56:58.563Z,978.75
2019-01-29T06:58:51.454Z,978.82
2019-01-29T06:59:51.334Z,978.83
2019-01-29T07:01:44.198Z,978.77
2019-01-29T07:02:44.060Z,978.81
2019-01-29T07:04:36.973Z,978.82
2019-01-29T07:05:36.808Z,978.85
2019-01-29T07:07:29.702Z,978.87
2019-01-29T07:08:29.580Z,978.84
2019-01-29T07:10:22.640Z,978.87
2019-01-29T07:11:22.534Z,978.89
2019-01-29T07:13:15.418Z,978.87
2019-01-29T07:14:15.263Z,978.83
2019-01-29T07:16:08.145Z,978.89
2019-01-29T07:17:08.039Z,978.89
2019-01-29T07:19:00.911Z,978.92
2019-01-29T07:20:00.765Z,978.99
2019-01-29T07:21:53.653Z,979.03
2019-01-29T07:22:53.517Z,979.01
2019-01-29T07:24:46.513Z,979.07
2019-01-29T07:25:46.274Z,978.96
2019-01-29T07:27:39.148Z,979.04
2019-01-29T07:28:39.067Z,979.00
2019-01-29T07:30:31.917Z,979.09
2019-01-29T07:31:31.789Z,979.11
2019-01-29T07:33:24.657Z,979.20
2019-01-29T07:34:24.513Z,979.15
2019-01-29T07:36:17.403Z,979.14
2019-01-29T07:37:22.075Z,979.13
2019-01-29T07:39:10.139Z,979.14
2019-01-29T07:40:10.085Z,979.11
2019-01-29T07:42:02.895Z,979.13
2019-01-29T07:43:02.795Z,979.16
2019-01-29T07:44:55.658Z,979.17
2019-01-29T07:45:55.515Z,979.21
2019-01-29T07:47:48.467Z,979.13
2019-01-29T07:48:48.280Z,979.13
2019-01-29T07:50:41.655Z,979.20
2019-01-29T07:51:41.518Z,979.17
2019-01-29T07:53:34.429Z,979.20
2019-01-29T07:54:34.278Z,979.21
2019-01-29T07:56:27.145Z,979.25
2019-01-29T07:57:27.024Z,979.22
2019-01-29T07:59:32.624Z,979.26
2019-01-29T08:00:19.869Z,979.23
2019-01-29T08:02:13.280Z,979.25
2019-01-29T08:03:13.146Z,979.34
2019-01-29T08:05:06.029Z,979.33
2019-01-29T08:06:05.884Z,979.27
2019-01-29T08:07:58.772Z,979.31
2019-01-29T08:08:58.638Z,979.28
2019-01-29T08:10:51.517Z,979.31
2019-01-29T08:11:51.378Z,979.34
2019-01-29T08:13:44.270Z,979.28
2019-01-29T08:14:44.142Z,979.37
2019-01-29T08:16:37.034Z,979.35
2019-01-29T08:17:36.886Z,979.34
2019-01-29T08:19:29.780Z,979.37
2019-01-29T08:20:29.646Z,979.46
2019-01-29T08:22:22.528Z,979.47
2019-01-29T08:23:22.382Z,979.47
2019-01-29T08:25:15.270Z,979.48
2019-01-29T08:26:15.128Z,979.43
2019-01-29T08:28:08.112Z,979.45
2019-01-29T08:29:07.998Z,979.47
2019-01-29T08:31:00.898Z,979.48
2019-01-29T08:32:00.749Z,979.52
2019-01-29T08:33:53.615Z,979.54
2019-01-29T08:34:53.490Z,979.54
2019-01-29T08:36:46.403Z,979.61
2019-01-29T08:37:46.228Z,979.61
2019-01-29T08:39:39.127Z,979.62
2019-01-29T08:40:38.985Z,979.66
2019-01-29T08:42:31.881Z,979.73
2019-01-29T08:43:31.774Z,979.70
2019-01-29T08:45:24.615Z,979.78
2019-01-29T08:46:24.481Z,979.76
2019-01-29T08:48:17.421Z,979.78
2019-01-29T08:49:17.234Z,979.79
2019-01-29T08:51:10.113Z,979.74
2019-01-29T08:52:11.629Z,979.77
2019-01-29T08:54:02.853Z,979.75
2019-01-29T08:55:10.451Z,979.70
2019-01-29T08:56:55.648Z,979.72
2019-01-29T08:57:55.481Z,979.73
2019-01-29T08:59:48.394Z,979.81
2019-01-29T09:00:48.237Z,979.79
2019-01-29T09:02:41.177Z,979.83
2019-01-29T09:03:40.981Z,979.84
2019-01-29T09:05:33.861Z,979.86
2019-01-29T09:06:33.733Z,979.86
2019-01-29T09:08:26.614Z,979.80
2019-01-29T09:09:26.487Z,979.82
2019-01-29T09:11:19.365Z,979.80
2019-01-29T09:12:19.221Z,979.82
2019-01-29T09:14:12.142Z,979.77
2019-01-29T09:15:11.991Z,979.85
2019-01-29T09:17:04.862Z,979.78
2019-01-29T09:18:04.725Z,979.76
2019-01-29T09:19:57.608Z,979.77
2019-01-29T09:20:57.499Z,979.72
2019-01-29T09:22:50.275Z,979.75
2019-01-29T09:23:50.141Z,979.73
2019-01-29T09:25:42.899Z,979.74
2019-01-29T09:26:42.784Z,979.75
2019-01-29T09:28:35.569Z,979.72
2019-01-29T09:29:35.437Z,979.77
2019-01-29T09:31:28.207Z,979.76
2019-01-29T09:32:28.080Z,979.70
2019-01-29T09:34:20.855Z,979.83
2019-01-29T09:35:20.733Z,979.80
2019-01-29T09:37:13.504Z,979.86
2019-01-29T09:38:13.386Z,979.79
2019-01-29T09:40:06.140Z,979.79
2019-01-29T09:41:06.016Z,979.79
2019-01-29T09:42:58.791Z,979.75
2019-01-29T09:43:58.681Z,979.70
2019-01-29T09:45:51.744Z,979.76
2019-01-29T09:46:51.603Z,979.81
2019-01-29T09:48:44.656Z,979.71
2019-01-29T09:49:44.490Z,979.75
2019-01-29T09:51:37.280Z,979.74
2019-01-29T09:52:37.110Z,979.74
2019-01-29T09:54:30.499Z,979.76
2019-01-29T09:55:30.366Z,979.70
2019-01-29T09:57:23.253Z,979.78
2019-01-29T09:58:23.134Z,979.78
2019-01-29T10:00:15.909Z,979.76
2019-01-29T10:01:15.772Z,979.80
2019-01-29T10:03:08.545Z,979.86
2019-01-29T10:04:08.414Z,979.80
2019-01-29T10:06:01.200Z,979.81
2019-01-29T10:07:01.083Z,979.80
2019-01-29T10:08:53.958Z,979.83
2019-01-29T10:09:53.708Z,979.83
2019-01-29T10:11:46.499Z,979.85
2019-01-29T10:12:46.370Z,979.89
2019-01-29T10:14:39.137Z,979.81
2019-01-29T10:15:39.010Z,979.79
2019-01-29T10:17:31.787Z,979.78
2019-01-29T10:18:31.680Z,979.80
2019-01-29T10:20:24.529Z,979.75
2019-01-29T10:21:24.407Z,979.81
2019-01-29T10:23:17.179Z,979.78
2019-01-29T10:24:17.065Z,979.79
2019-01-29T10:26:09.849Z,979.77
2019-01-29T10:27:09.715Z,979.82
2019-01-29T10:29:02.575Z,979.82
2019-01-29T10:30:02.455Z,979.80
2019-01-29T10:31:55.244Z,979.86
2019-01-29T10:32:55.100Z,979.85
2019-01-29T10:34:47.895Z,979.76
2019-01-29T10:35:47.745Z,979.77
2019-01-29T10:37:40.526Z,979.71
2019-01-29T10:38:40.407Z,979.73
2019-01-29T10:40:33.263Z,979.72
2019-01-29T10:41:33.147Z,979.68
2019-01-29T10:43:26.497Z,979.66
2019-01-29T10:44:25.803Z,979.68
2019-01-29T10:46:18.568Z,979.63
2019-01-29T10:47:18.462Z,979.62
2019-01-29T10:49:11.213Z,979.62
2019-01-29T10:50:11.100Z,979.60
2019-01-29T10:52:03.861Z,979.60
2019-01-29T10:53:03.743Z,979.59
2019-01-29T10:54:58.045Z,979.59
2019-01-29T10:55:56.478Z,979.57
2019-01-29T10:57:49.371Z,979.56
2019-01-29T10:58:49.256Z,979.53
2019-01-29T11:00:42.101Z,979.44
2019-01-29T11:01:41.984Z,979.46
2019-01-29T11:03:34.839Z,979.44
2019-01-29T11:04:34.628Z,979.47
2019-01-29T11:06:27.502Z,979.45
2019-01-29T11:07:27.377Z,979.40
2019-01-29T11:09:25.346Z,979.46
2019-01-29T11:10:20.024Z,979.50
2019-01-29T11:12:12.822Z,979.48
2019-01-29T11:13:12.682Z,979.52
2019-01-29T11:15:05.444Z,979.50
2019-01-29T11:16:05.322Z,979.48
2019-01-29T11:17:58.109Z,979.41
2019-01-29T11:19:03.143Z,979.41
2019-01-29T11:20:50.846Z,979.38
2019-01-29T11:21:50.711Z,979.43
2019-01-29T11:23:43.605Z,979.40
2019-01-29T11:24:45.079Z,979.43
2019-01-29T11:26:36.236Z,979.40
2019-01-29T11:27:36.116Z,979.42
2019-01-29T11:29:28.901Z,979.46
2019-01-29T11:30:28.757Z,979.46
2019-01-29T11:32:21.634Z,979.38
2019-01-29T11:33:21.503Z,979.42
2019-01-29T11:35:14.336Z,979.38
2019-01-29T11:36:14.155Z,979.35
2019-01-29T11:38:07.064Z,979.36
2019-01-29T11:39:06.911Z,979.33
2019-01-29T11:40:59.681Z,979.37
2019-01-29T11:41:59.565Z,979.36
2019-01-29T11:43:55.402Z,979.35
2019-01-29T11:44:55.275Z,979.38
2019-01-29T11:46:48.045Z,979.31
2019-01-29T11:47:47.939Z,979.34
2019-01-29T11:49:40.825Z,979.37
2019-01-29T11:50:40.669Z,979.35
2019-01-29T11:52:33.449Z,979.30
2019-01-29T11:53:33.313Z,979.29
2019-01-29T11:55:26.215Z,979.33
2019-01-29T11:56:26.078Z,979.33
2019-01-29T11:58:18.942Z,979.30
2019-01-29T11:59:18.823Z,979.33
2019-01-29T12:01:11.597Z,979.30
2019-01-29T12:02:11.468Z,979.37
2019-01-29T12:04:04.360Z,979.38
2019-01-29T12:05:04.223Z,979.38
2019-01-29T12:06:57.093Z,979.36
2019-01-29T12:07:56.978Z,979.40
2019-01-29T12:09:49.756Z,979.36
2019-01-29T12:10:49.617Z,979.35
2019-01-29T12:12:42.515Z,979.35
2019-01-29T12:13:42.360Z,979.37
2019-01-29T12:15:35.258Z,979.31
2019-01-29T12:16:35.110Z,979.34
2019-01-29T12:18:27.885Z,979.29
2019-01-29T12:19:27.759Z,979.28
2019-01-29T12:21:20.656Z,979.22
2019-01-29T12:22:20.540Z,979.25
2019-01-29T12:24:13.413Z,979.20
2019-01-29T12:25:13.262Z,979.15
2019-01-29T12:27:06.048Z,979.15
2019-01-29T12:28:05.905Z,979.19
2019-01-29T12:29:58.776Z,979.14
2019-01-29T12:30:58.670Z,979.11
2019-01-29T12:32:51.564Z,979.16
2019-01-29T12:33:51.394Z,979.06
2019-01-29T12:35:44.278Z,979.01
2019-01-29T12:36:44.146Z,979.04
2019-01-29T12:38:37.026Z,979.02
2019-01-29T12:39:36.918Z,979.04
2019-01-29T12:41:29.768Z,979.01
2019-01-29T12:42:29.640Z,979.00
2019-01-29T12:44:22.564Z,979.03
2019-01-29T12:45:22.386Z,979.03
2019-01-29T12:47:15.281Z,979.00
2019-01-29T12:48:15.142Z,978.98
2019-01-29T12:50:08.044Z,978.95
2019-01-29T12:51:07.890Z,978.96
2019-01-29T12:53:00.778Z,978.92
2019-01-29T12:54:00.649Z,978.94
2019-01-29T12:55:53.532Z,978.96
2019-01-29T12:56:53.392Z,978.95
2019-01-29T12:58:46.685Z,978.95
2019-01-29T12:59:46.578Z,978.94
2019-01-29T13:01:39.437Z,978.93
2019-01-29T13:02:39.309Z,978.92
2019-01-29T13:04:32.217Z,978.94
2019-01-29T13:05:32.833Z,978.90
2019-01-29T13:07:24.935Z,978.91
2019-01-29T13:08:24.805Z,978.94
2019-01-29T13:10:17.678Z,978.84
2019-01-29T13:11:17.543Z,978.83
2019-01-29T13:13:10.453Z,978.86
2019-01-29T13:14:10.293Z,978.85
2019-01-29T13:16:03.203Z,978.87
2019-01-29T13:17:03.043Z,978.82
2019-01-29T13:18:55.932Z,978.86
2019-01-29T13:19:55.799Z,978.85
2019-01-29T13:21:48.676Z,978.86
2019-01-29T13:22:48.561Z,978.83
2019-01-29T13:24:41.427Z,978.82
2019-01-29T13:25:41.295Z,978.81
2019-01-29T13:27:34.616Z,978.80
2019-01-29T13:28:34.463Z,978.85
2019-01-29T13:30:27.358Z,978.78
2019-01-29T13:31:27.210Z,978.81
2019-01-29T13:33:20.097Z,978.78
2019-01-29T13:34:19.954Z,978.79
2019-01-29T13:36:12.837Z,978.73
2019-01-29T13:37:12.703Z,978.73
2019-01-29T13:39:05.587Z,978.72
2019-01-29T13:40:05.511Z,978.70
2019-01-29T13:41:58.338Z,978.72
2019-01-29T13:42:58.215Z,978.75
2019-01-29T13:44:51.106Z,978.72
2019-01-29T13:45:50.957Z,978.74
2019-01-29T13:47:43.841Z,978.72
2019-01-29T13:48:43.768Z,978.72
2019-01-29T13:50:36.616Z,978.63
2019-01-29T13:51:36.478Z,978.64
2019-01-29T13:53:29.335Z,978.61
2019-01-29T13:54:29.219Z,978.66
2019-01-29T13:56:22.099Z,978.61
2019-01-29T13:57:21.974Z,978.64
2019-01-29T13:59:14.840Z,978.59
2019-01-29T14:00:14.709Z,978.63
2019-01-29T14:02:07.618Z,978.63
2019-01-29T14:03:07.460Z,978.65
2019-01-29T14:05:00.336Z,978.63
2019-01-29T14:06:00.202Z,978.60
2019-01-29T14:07:53.121Z,978.57
2019-01-29T14:08:53.689Z,978.58
2019-01-29T14:10:45.844Z,978.56
2019-01-29T14:11:45.704Z,978.55
2019-01-29T14:13:38.592Z,978.55
2019-01-29T14:14:38.479Z,978.54
2019-01-29T14:16:31.358Z,978.56
2019-01-29T14:17:31.205Z,978.56
2019-01-29T14:19:24.080Z,978.56
2019-01-29T14:20:24.023Z,978.57
2019-01-29T14:22:16.895Z,978.56
2019-01-29T14:23:16.710Z,978.54
2019-01-29T14:25:09.601Z,978.51
2019-01-29T14:26:09.481Z,978.52
2019-01-29T14:28:02.328Z,978.55
2019-01-29T14:29:02.209Z,978.55
2019-01-29T14:30:55.077Z,978.53
2019-01-29T14:31:54.947Z,978.53
2019-01-29T14:33:47.833Z,978.51
2019-01-29T14:34:47.697Z,978.50
2019-01-29T14:36:41.113Z,978.44
2019-01-29T14:37:42.413Z,978.47
2019-01-29T14:39:33.857Z,978.41
2019-01-29T14:40:33.705Z,978.43
2019-01-29T14:42:26.588Z,978.39
2019-01-29T14:43:26.479Z,978.39
2019-01-29T14:45:19.341Z,978.40
2019-01-29T14:46:19.515Z,978.38
2019-01-29T14:48:12.101Z,978.37
2019-01-29T14:49:11.979Z,978.33
2019-01-29T14:51:04.845Z,978.35
2019-01-29T14:52:04.717Z,978.34
2019-01-29T14:53:57.601Z,978.35
2019-01-29T14:54:57.454Z,978.36
2019-01-29T14:56:56.650Z,978.33
2019-01-29T14:57:50.225Z,978.34
2019-01-29T14:59:43.089Z,978.37
2019-01-29T15:00:42.979Z,978.36
2019-01-29T15:02:35.848Z,978.35
2019-01-29T15:03:35.708Z,978.36
2019-01-29T15:05:28.590Z,978.31
2019-01-29T15:06:32.652Z,978.29
2019-01-29T15:08:21.359Z,978.29
2019-01-29T15:09:21.273Z,978.27
2019-01-29T15:11:14.098Z,978.27
2019-01-29T15:12:13.956Z,978.30
2019-01-29T15:14:06.838Z,978.29
2019-01-29T15:15:06.706Z,978.29
2019-01-29T15:16:59.600Z,978.26
2019-01-29T15:17:59.460Z,978.27
2019-01-29T15:19:52.337Z,978.23
2019-01-29T15:20:52.211Z,978.19
2019-01-29T15:22:45.083Z,978.16
2019-01-29T15:23:44.968Z,978.14
2019-01-29T15:25:37.844Z,978.11
2019-01-29T15:26:37.708Z,978.11
2019-01-29T15:28:30.583Z,978.13
2019-01-29T15:29:30.467Z,978.14
2019-01-29T15:31:23.329Z,978.13
2019-01-29T15:32:23.192Z,978.12
2019-01-29T15:34:16.084Z,978.09
2019-01-29T15:35:15.958Z,978.02
2019-01-29T15:37:08.836Z,978.01
2019-01-29T15:38:08.724Z,978.01
2019-01-29T15:40:01.519Z,978.00
2019-01-29T15:41:01.360Z,977.99
2019-01-29T15:42:56.100Z,977.92
2019-01-29T15:43:54.202Z,977.97
2019-01-29T15:45:47.084Z,977.90
2019-01-29T15:46:46.954Z,977.90
2019-01-29T15:48:39.848Z,977.91
2019-01-29T15:49:39.853Z,977.89
2019-01-29T15:51:32.602Z,977.86
2019-01-29T15:52:32.462Z,977.86
2019-01-29T15:54:25.359Z,977.85
2019-01-29T15:55:25.200Z,977.83
2019-01-29T15:57:18.111Z,977.85
2019-01-29T15:58:17.958Z,977.89
2019-01-29T16:00:10.879Z,977.84
2019-01-29T16:01:10.703Z,977.84
2019-01-29T16:03:03.575Z,977.86
2019-01-29T16:04:03.453Z,977.84
2019-01-29T16:05:56.325Z,977.84
2019-01-29T16:06:56.197Z,977.81
2019-01-29T16:08:49.105Z,977.86
2019-01-29T16:09:48.939Z,977.88
2019-01-29T16:11:41.834Z,977.86
2019-01-29T16:12:41.707Z,977.87
2019-01-29T16:14:35.629Z,977.87
2019-01-29T16:15:35.467Z,977.86
2019-01-29T16:17:28.349Z,977.86
2019-01-29T16:18:28.219Z,977.88
2019-01-29T16:20:21.107Z,977.88
2019-01-29T16:21:20.988Z,977.87
2019-01-29T16:23:13.859Z,977.87
2019-01-29T16:24:13.715Z,977.85
2019-01-29T16:26:06.597Z,977.87
2019-01-29T16:27:07.199Z,977.86
2019-01-29T16:28:59.356Z,977.85
2019-01-29T16:29:59.470Z,977.84
2019-01-29T16:31:52.236Z,977.83
2019-01-29T16:32:52.166Z,977.85
2019-01-29T16:34:44.949Z,977.81
2019-01-29T16:35:44.827Z,977.81
2019-01-29T16:37:38.234Z,977.81
2019-01-29T16:38:38.080Z,977.80
2019-01-29T16:40:31.808Z,977.79
2019-01-29T16:41:31.647Z,977.78
2019-01-29T16:43:24.566Z,977.76
2019-01-29T16:44:24.456Z,977.70
2019-01-29T16:46:17.276Z,977.69
2019-01-29T16:47:17.158Z,977.70
2019-01-29T16:49:10.034Z,977.67
2019-01-29T16:50:09.908Z,977.63
2019-01-29T16:52:02.809Z,977.63
2019-01-29T16:53:02.654Z,977.61
2019-01-29T16:54:55.537Z,977.57
2019-01-29T16:55:55.398Z,977.52
2019-01-29T16:57:48.282Z,977.51
2019-01-29T16:58:48.154Z,977.53
2019-01-29T17:00:41.030Z,977.54
2019-01-29T17:01:40.940Z,977.47
2019-01-29T17:03:33.779Z,977.51
2019-01-29T17:04:33.646Z,977.53
2019-01-29T17:06:26.518Z,977.48
2019-01-29T17:07:26.398Z,977.48
2019-01-29T17:09:19.274Z,977.50
2019-01-29T17:10:19.159Z,977.46
2019-01-29T17:12:12.027Z,977.49
2019-01-29T17:13:11.920Z,977.48
2019-01-29T17:15:06.436Z,977.42
2019-01-29T17:16:06.283Z,977.40
2019-01-29T17:17:59.189Z,977.44
2019-01-29T17:18:59.047Z,977.43
2019-01-29T17:20:52.235Z,977.46
2019-01-29T17:21:52.093Z,977.45
2019-01-29T17:23:44.975Z,977.44
2019-01-29T17:24:44.854Z,977.42
2019-01-29T17:26:37.729Z,977.43
2019-01-29T17:27:40.318Z,977.44
2019-01-29T17:29:30.460Z,977.37
2019-01-29T17:30:30.350Z,977.41
2019-01-29T17:32:30.348Z,977.42
2019-01-29T17:33:23.086Z,977.39
2019-01-29T17:35:15.955Z,977.37
2019-01-29T17:36:15.839Z,977.37
2019-01-29T17:38:08.819Z,977.38
2019-01-29T17:39:08.589Z,977.35
2019-01-29T17:41:01.471Z,977.31
2019-01-29T17:42:01.332Z,977.28
2019-01-29T17:43:54.355Z,977.28
2019-01-29T17:44:54.187Z,977.26
2019-01-29T17:46:47.081Z,977.28
2019-01-29T17:47:46.940Z,977.28
2019-01-29T17:49:39.822Z,977.23
2019-01-29T17:50:39.690Z,977.26
2019-01-29T17:52:32.493Z,977.25
2019-01-29T17:53:32.370Z,977.24
2019-01-29T17:55:25.248Z,977.25
2019-01-29T17:56:25.085Z,977.23
2019-01-29T17:58:17.967Z,977.22